This demonstration page uses our WeatherBlox Daily Observations layout. Learn more.

38.88101, -77.10428

Hourly Observations for January 19, 2016

Temp ( °F °C ) Dew Point ( °F °C ) Humidity (%) Winds ( mph kmh ) Pressure ( in mb ) Visibility ( mi km ) Precip ( " mm )
12:52 am 00:52 Clear 16 -9 -2 -19 45 45 NW 15 24 30.24 1024 10 16.09344 0 0
1:52 am 01:52 Clear 16 -9 -2 -19 45 45 WNW 14 22 30.27 1025 10 16.09344 0 0
2:52 am 02:52 Clear 16 -9 -2 -19 45 45 WNW 7 11 30.27 1025 10 16.09344 0 0
3:52 am 03:52 Clear 16 -9 -2 -19 45 45 WNW 24 39 30.24 1024 10 16.09344 0 0
4:52 am 04:52 Clear 16 -9 -2 -19 45 45 WNW 9 15 30.27 1025 10 16.09344 0 0
5:52 am 05:52 Clear 16 -9 -2 -19 45 45 NW 14 22 30.27 1025 10 16.09344 0 0
6:52 am 06:52 Clear 16 -9 0 -18 48 48 NW 14 22 30.3 1026 10 16.09344 0 0
7:52 am 07:52 Sunny 16 -9 0 -18 48 48 W 16 26 30.3 1026 10 16.09344 0 0
8:52 am 08:52 Sunny 18 -8 0 -18 45 45 NW 15 24 30.3 1026 10 16.09344 0 0
9:52 am 09:52 Sunny 19 -7 0 -18 42 42 NW 18 30 30.33 1027 10 16.09344 0 0
10:52 am 10:52 Mostly Sunny 21 -6 0 -18 38 38 WNW 20 31 30.33 1027 10 16.09344 0 0
11:52 am 11:52 Mostly Sunny 25 -4 1 -17 36 36 WNW 15 24 30.33 1027 10 16.09344 0 0
12:52 pm 12:52 Partly Cloudy 27 -3 1 -17 33 33 NW 18 30 30.33 1027 10 16.09344 0 0
1:52 pm 13:52 Mostly Sunny 27 -3 1 -17 33 33 WNW 23 37 30.3 1026 10 16.09344 0 0
2:52 pm 14:52 Mostly Sunny 27 -3 1 -17 33 33 NW 21 33 30.3 1026 10 16.09344 0 0
3:52 pm 15:52 Sunny 27 -3 1 -17 33 33 W 16 26 30.3 1026 10 16.09344 0 0
4:52 pm 16:52 Sunny 27 -3 1 -17 33 33 NW 16 26 30.33 1027 10 16.09344 0 0
5:52 pm 17:52 Clear 25 -4 1 -17 36 36 WNW 14 22 30.33 1027 10 16.09344 0 0
6:52 pm 18:52 Clear 25 -4 1 -17 36 36 WNW 14 22 30.36 1028 10 16.09344 0 0
7:52 pm 19:52 Clear 25 -4 3 -16 39 39 WNW 13 20 30.36 1028 10 16.09344 0 0
8:52 pm 20:52 Clear 23 -5 3 -16 42 42 NW 10 17 30.36 1028 10 16.09344 0 0
9:52 pm 21:52 Clear 21 -6 3 -16 45 45 WNW 9 15 30.36 1028 10 16.09344 0 0
10:52 pm 22:52 Clear 21 -6 3 -16 45 45 NW 13 20 30.39 1029 10 16.09344 0 0
11:52 pm 23:52 Clear 21 -6 3 -16 45 45 NW 14 22 30.36 1028 10 16.09344 0 0

Powered by AerisWeather